Wetterstation Vordersexau
Wetterdaten: Woche 14.07.14 - 20.07.14 (KW29)
Datum Zeit Temp. A. Feuchte A. Luftdruck Regen Wind Richtung Taupunkt Windchill Windben
14.07.2014 00:00 16,9 C 84 % 983,2 hPa 0,0 l/m 1,8 km/h S 14,2 C 16,9 C 1,8 km/h
14.07.2014 01:00 17,0 C 85 % 982,9 hPa 0,0 l/m 1,8 km/h S 14,5 C 17,0 C 1,8 km/h
14.07.2014 02:00 16,4 C 85 % 983,0 hPa 0,2 l/m 12,2 km/h W-NW 13,9 C 13,8 C 12,2 km/h
14.07.2014 03:00 16,6 C 85 % 983,3 hPa 0,0 l/m 1,8 km/h SW 14,1 C 16,6 C 1,8 km/h
14.07.2014 04:00 16,5 C 85 % 983,4 hPa 0,0 l/m 0,0 km/h S-SW 14,0 C 16,5 C 0,0 km/h
14.07.2014 05:00 16,1 C 86 % 983,5 hPa 0,0 l/m 0,0 km/h S-SW 13,8 C 16,1 C 0,0 km/h
14.07.2014 06:00 15,4 C 86 % 983,8 hPa 0,0 l/m 0,0 km/h S-SW 13,1 C 15,4 C 0,0 km/h
14.07.2014 07:00 16,4 C 85 % 984,2 hPa 0,0 l/m 0,0 km/h S 13,9 C 16,4 C 0,0 km/h
14.07.2014 08:00 19,6 C 84 % 984,6 hPa 0,0 l/m 1,3 km/h W-SW 16,8 C 19,6 C 0,7 km/h
14.07.2014 09:00 19,8 C 78 % 985,0 hPa 0,0 l/m 10,4 km/h S-SW 15,8 C 18,3 C 5,8 km/h
14.07.2014 10:00 22,2 C 69 % 985,1 hPa 0,0 l/m 10,4 km/h W-SW 16,2 C 21,0 C 5,8 km/h
14.07.2014 11:00 26,6 C 59 % 985,2 hPa 0,0 l/m 4,5 km/h W 17,9 C 26,6 C 2,5 km/h
14.07.2014 12:00 24,9 C 58 % 985,1 hPa 0,0 l/m 16,2 km/h SW 16,1 C 23,0 C 9,0 km/h
14.07.2014 13:00 27,9 C 52 % 985,0 hPa 0,0 l/m 14,3 km/h N-NO 17,1 C 26,9 C 7,9 km/h
14.07.2014 14:00 23,8 C 65 % 985,3 hPa 0,0 l/m 6,5 km/h NW 16,8 C 23,8 C 3,6 km/h
14.07.2014 15:00 20,2 C 79 % 986,0 hPa 0,5 l/m 1,3 km/h O-SO 16,4 C 20,2 C 0,7 km/h
14.07.2014 16:00 21,9 C 81 % 986,3 hPa 0,6 l/m 0,6 km/h W 18,5 C 21,9 C 0,4 km/h
14.07.2014 17:00 18,7 C 83 % 987,1 hPa 1,2 l/m 0,0 km/h N-NO 15,8 C 18,7 C 0,0 km/h
14.07.2014 18:00 23,9 C 72 % 987,2 hPa 0,0 l/m 0,0 km/h O-SO 18,5 C 23,9 C 0,0 km/h
14.07.2014 19:00 20,2 C 77 % 987,8 hPa 0,0 l/m 5,2 km/h SO 16,0 C 20,2 C 2,9 km/h
14.07.2014 20:00 16,8 C 85 % 988,5 hPa 3,3 l/m 11,0 km/h NO 14,3 C 14,7 C 6,1 km/h
14.07.2014 21:00 16,4 C 85 % 988,9 hPa 0,3 l/m 0,0 km/h SO 13,9 C 16,4 C 0,0 km/h
14.07.2014 22:00 16,4 C 85 % 989,6 hPa 0,0 l/m 2,5 km/h SO 13,9 C 16,4 C 2,5 km/h
14.07.2014 23:00 15,5 C 84 % 990,0 hPa 0,0 l/m 0,4 km/h SO 12,8 C 15,5 C 0,4 km/h
15.07.2014 00:00 14,2 C 84 % 990,5 hPa 0,0 l/m 0,4 km/h SO 11,5 C 14,2 C 0,4 km/h
15.07.2014 01:00 13,3 C 84 % 990,5 hPa 0,0 l/m 0,0 km/h SO 10,7 C 13,3 C 0,0 km/h
15.07.2014 02:00 12,6 C 84 % 991,1 hPa 0,0 l/m 0,0 km/h SO 10,0 C 12,6 C 0,0 km/h
15.07.2014 03:00 12,3 C 84 % 991,3 hPa 0,0 l/m 0,0 km/h SO 9,7 C 12,3 C 0,0 km/h
15.07.2014 04:00 11,7 C 83 % 991,3 hPa 0,0 l/m 0,0 km/h SO 8,9 C 11,7 C 0,0 km/h
15.07.2014 05:00 11,2 C 83 % 991,5 hPa 0,0 l/m 0,0 km/h SO 8,4 C 11,2 C 0,0 km/h
15.07.2014 06:00 11,3 C 83 % 991,3 hPa 0,0 l/m 0,0 km/h SO 8,5 C 11,3 C 0,0 km/h
15.07.2014 07:00 12,8 C 81 % 991,5 hPa 0,0 l/m 0,0 km/h SO 9,6 C 12,8 C 0,0 km/h
15.07.2014 08:00 18,3 C 84 % 991,8 hPa 0,0 l/m 3,2 km/h SO 15,5 C 18,3 C 1,8 km/h
15.07.2014 09:00 25,1 C 71 % 991,9 hPa 0,0 l/m 0,0 km/h S-SW 19,5 C 25,1 C 0,0 km/h
15.07.2014 10:00 28,1 C 53 % 992,0 hPa 0,0 l/m 0,0 km/h N 17,6 C 28,1 C 0,0 km/h
15.07.2014 11:00 28,4 C 49 % 992,0 hPa 0,0 l/m 0,0 km/h S 16,6 C 28,4 C 0,0 km/h
15.07.2014 12:00 26,8 C 46 % 991,8 hPa 0,0 l/m 0,0 km/h N-NO 14,2 C 26,8 C 0,0 km/h
15.07.2014 13:00 27,5 C 44 % 992,0 hPa 0,0 l/m 12,3 km/h W-NW 14,1 C 26,6 C 6,8 km/h
15.07.2014 14:00 27,4 C 44 % 991,6 hPa 0,0 l/m 3,2 km/h N-NO 14,0 C 27,4 C 1,8 km/h
15.07.2014 15:00 30,5 C 37 % 991,4 hPa 0,0 l/m 1,9 km/h NO 14,1 C 30,5 C 1,1 km/h
15.07.2014 16:00 32,6 C 34 % 991,3 hPa 0,0 l/m 0,0 km/h N-NO 14,7 C 32,6 C 0,0 km/h
15.07.2014 17:00 33,8 C 28 % 991,2 hPa 0,0 l/m 0,0 km/h N-NO 12,7 C 33,8 C 0,0 km/h
15.07.2014 18:00 34,3 C 28 % 991,0 hPa 0,0 l/m 0,0 km/h N-NO 13,1 C 34,3 C 0,0 km/h
15.07.2014 19:00 31,9 C 32 % 991,3 hPa 0,0 l/m 0,0 km/h N 13,1 C 31,9 C 0,0 km/h
15.07.2014 20:00 23,9 C 46 % 991,3 hPa 0,0 l/m 0,0 km/h N 11,6 C 23,9 C 0,0 km/h
15.07.2014 21:00 19,6 C 63 % 991,6 hPa 0,0 l/m 0,0 km/h N-NO 12,4 C 19,6 C 0,0 km/h
15.07.2014 22:00 16,5 C 71 % 992,0 hPa 0,0 l/m 0,0 km/h SO 11,2 C 16,5 C 0,0 km/h
15.07.2014 23:00 15,4 C 77 % 992,2 hPa 0,0 l/m 0,0 km/h SO 11,4 C 15,4 C 0,0 km/h
16.07.2014 00:00 14,6 C 79 % 992,6 hPa 0,0 l/m 1,1 km/h SO 11,0 C 14,6 C 1,1 km/h
16.07.2014 01:00 14,3 C 81 % 992,5 hPa 0,0 l/m 0,0 km/h SO 11,1 C 14,3 C 0,0 km/h
16.07.2014 02:00 14,1 C 82 % 992,5 hPa 0,0 l/m 9,7 km/h SO 11,1 C 12,3 C 9,7 km/h
16.07.2014 03:00 13,8 C 83 % 992,6 hPa 0,0 l/m 0,0 km/h O 11,0 C 13,8 C 0,0 km/h
16.07.2014 04:00 12,8 C 85 % 992,5 hPa 0,0 l/m 0,0 km/h NO 10,3 C 12,8 C 0,0 km/h
16.07.2014 05:00 12,3 C 85 % 992,6 hPa 0,0 l/m 0,0 km/h O 9,9 C 12,3 C 0,0 km/h
16.07.2014 06:00 12,4 C 86 % 992,3 hPa 0,0 l/m 0,0 km/h SO 10,1 C 12,4 C 0,0 km/h
16.07.2014 07:00 13,9 C 86 % 992,5 hPa 0,0 l/m 0,0 km/h O-NO 11,6 C 13,9 C 0,0 km/h
16.07.2014 08:00 22,3 C 68 % 992,6 hPa 0,0 l/m 0,0 km/h N 16,1 C 22,3 C 0,0 km/h
16.07.2014 09:00 25,9 C 55 % 992,5 hPa 0,0 l/m 0,0 km/h S-SW 16,2 C 25,9 C 0,0 km/h
16.07.2014 10:00 28,1 C 51 % 992,4 hPa 0,0 l/m 0,0 km/h W 17,0 C 28,1 C 0,0 km/h
16.07.2014 11:00 29,7 C 47 % 992,2 hPa 0,0 l/m 0,0 km/h W 17,2 C 29,7 C 0,0 km/h
16.07.2014 12:00 28,7 C 51 % 992,2 hPa 0,0 l/m 1,9 km/h NW 17,5 C 28,7 C 1,1 km/h
16.07.2014 13:00 29,6 C 48 % 991,7 hPa 0,0 l/m 1,9 km/h W-SW 17,4 C 29,6 C 1,1 km/h
16.07.2014 14:00 30,2 C 46 % 991,6 hPa 0,0 l/m 0,0 km/h W 17,3 C 30,2 C 0,0 km/h
16.07.2014 15:00 32,1 C 43 % 991,1 hPa 0,0 l/m 3,9 km/h N 17,9 C 32,1 C 2,2 km/h
16.07.2014 16:00 34,6 C 39 % 991,2 hPa 0,0 l/m 13,0 km/h N 18,6 C 34,6 C 7,2 km/h
16.07.2014 17:00 37,4 C 33 % 991,1 hPa 0,0 l/m 0,0 km/h N-NO 18,4 C 37,4 C 0,0 km/h
16.07.2014 18:00 36,3 C 34 % 990,7 hPa 0,0 l/m 0,0 km/h N-NO 17,9 C 36,3 C 0,0 km/h
16.07.2014 19:00 32,4 C 36 % 990,6 hPa 0,0 l/m 0,0 km/h N-NO 15,4 C 32,4 C 0,0 km/h
16.07.2014 20:00 25,9 C 50 % 990,9 hPa 0,0 l/m 0,0 km/h N-NO 14,7 C 25,9 C 0,0 km/h
16.07.2014 21:00 21,5 C 63 % 990,9 hPa 0,0 l/m 0,0 km/h N-NO 14,2 C 21,5 C 0,0 km/h
16.07.2014 22:00 19,0 C 73 % 991,6 hPa 0,0 l/m 0,0 km/h N-NO 14,0 C 19,0 C 0,0 km/h
16.07.2014 23:00 17,8 C 77 % 992,0 hPa 0,0 l/m 0,0 km/h N-NO 13,7 C 17,8 C 0,0 km/h
17.07.2014 00:00 16,8 C 81 % 992,0 hPa 0,0 l/m 0,0 km/h N-NO 13,5 C 16,8 C 0,0 km/h
17.07.2014 01:00 16,1 C 83 % 992,1 hPa 0,0 l/m 0,0 km/h N-NO 13,2 C 16,1 C 0,0 km/h
17.07.2014 02:00 15,3 C 84 % 991,9 hPa 0,0 l/m 0,0 km/h N-NO 12,6 C 15,3 C 0,0 km/h
17.07.2014 03:00 14,5 C 85 % 991,9 hPa 0,0 l/m 0,0 km/h N-NO 12,0 C 14,5 C 0,0 km/h
17.07.2014 04:00 14,4 C 86 % 991,7 hPa 0,0 l/m 0,0 km/h N-NO 12,1 C 14,4 C 0,0 km/h
17.07.2014 05:00 13,6 C 85 % 991,6 hPa 0,0 l/m 0,0 km/h N-NO 11,1 C 13,6 C 0,0 km/h
17.07.2014 06:00 13,8 C 85 % 992,0 hPa 0,0 l/m 0,0 km/h N-NO 11,3 C 13,8 C 0,0 km/h
17.07.2014 07:00 15,4 C 85 % 992,0 hPa 0,0 l/m 0,0 km/h O-NO 12,9 C 15,4 C 0,0 km/h
17.07.2014 08:00 25,1 C 68 % 992,2 hPa 0,0 l/m 0,0 km/h W-NW 18,8 C 25,1 C 0,0 km/h
17.07.2014 09:00 28,7 C 53 % 992,1 hPa 0,0 l/m 9,1 km/h N-NO 18,2 C 28,4 C 5,0 km/h
17.07.2014 10:00 29,5 C 51 % 991,7 hPa 0,0 l/m 0,0 km/h N-NO 18,3 C 29,5 C 0,0 km/h
17.07.2014 11:00 31,4 C 46 % 991,9 hPa 0,0 l/m 0,0 km/h W-NW 18,4 C 31,4 C 0,0 km/h
17.07.2014 12:00 30,4 C 52 % 991,8 hPa 0,0 l/m 10,4 km/h N 19,4 C 30,1 C 5,8 km/h
17.07.2014 13:00 31,5 C 50 % 991,2 hPa 0,0 l/m 0,0 km/h W 19,8 C 31,5 C 0,0 km/h
17.07.2014 14:00 32,3 C 48 % 990,8 hPa 0,0 l/m 0,0 km/h W-NW 19,9 C 32,3 C 0,0 km/h
17.07.2014 15:00 34,9 C 42 % 990,4 hPa 0,0 l/m 1,9 km/h N-NW 20,0 C 34,9 C 1,1 km/h
17.07.2014 16:00 37,6 C 36 % 990,0 hPa 0,0 l/m 0,0 km/h N-NO 19,9 C 37,6 C 0,0 km/h
17.07.2014 17:00 39,3 C 32 % 989,7 hPa 0,0 l/m 1,3 km/h N 19,5 C 39,3 C 0,7 km/h
17.07.2014 18:00 37,5 C 35 % 989,2 hPa 0,0 l/m 0,0 km/h W 19,4 C 37,5 C 0,0 km/h
17.07.2014 19:00 35,2 C 38 % 989,0 hPa 0,0 l/m 0,0 km/h N 18,7 C 35,2 C 0,0 km/h
17.07.2014 20:00 27,8 C 51 % 989,0 hPa 0,0 l/m 0,0 km/h N 16,7 C 27,8 C 0,0 km/h
17.07.2014 21:00 24,1 C 67 % 989,1 hPa 0,0 l/m 0,0 km/h O 17,6 C 24,1 C 0,0 km/h
17.07.2014 22:00 21,3 C 75 % 989,3 hPa 0,0 l/m 0,0 km/h SO 16,7 C 21,3 C 0,0 km/h
17.07.2014 23:00 19,8 C 75 % 989,4 hPa 0,0 l/m 0,0 km/h O-SO 15,2 C 19,8 C 0,0 km/h
18.07.2014 00:00 19,2 C 73 % 989,5 hPa 0,0 l/m 2,9 km/h O-SO 14,2 C 19,2 C 2,9 km/h
18.07.2014 01:00 17,5 C 75 % 989,3 hPa 0,0 l/m 0,0 km/h NO 13,0 C 17,5 C 0,0 km/h
18.07.2014 02:00 16,4 C 79 % 989,1 hPa 0,0 l/m 0,0 km/h O-NO 12,7 C 16,4 C 0,0 km/h
18.07.2014 03:00 15,3 C 83 % 988,9 hPa 0,0 l/m 0,0 km/h N-NO 12,4 C 15,3 C 0,0 km/h
18.07.2014 04:00 15,3 C 84 % 988,8 hPa 0,0 l/m 0,0 km/h SO 12,6 C 15,3 C 0,0 km/h
18.07.2014 05:00 14,2 C 85 % 988,9 hPa 0,0 l/m 0,0 km/h W-SW 11,7 C 14,2 C 0,0 km/h
18.07.2014 06:00 13,4 C 85 % 989,2 hPa 0,0 l/m 0,0 km/h O-NO 10,9 C 13,4 C 0,0 km/h
18.07.2014 07:00 15,8 C 85 % 989,4 hPa 0,0 l/m 0,0 km/h O-NO 13,3 C 15,8 C 0,0 km/h
18.07.2014 08:00 26,6 C 55 % 989,7 hPa 0,0 l/m 0,0 km/h NW 16,8 C 26,6 C 0,0 km/h
18.07.2014 09:00 30,1 C 49 % 989,3 hPa 0,0 l/m 0,0 km/h W 18,2 C 30,1 C 0,0 km/h
18.07.2014 10:00 33,1 C 41 % 989,2 hPa 0,0 l/m 1,3 km/h W-NW 18,0 C 33,1 C 0,7 km/h
18.07.2014 11:00 34,0 C 40 % 989,0 hPa 0,0 l/m 0,0 km/h S 18,5 C 34,0 C 0,0 km/h
18.07.2014 12:00 32,3 C 44 % 988,8 hPa 0,0 l/m 1,1 km/h N-NO 18,5 C 32,3 C 1,1 km/h
18.07.2014 13:00 33,4 C 44 % 988,5 hPa 0,0 l/m 0,0 km/h N-NO 19,4 C 33,4 C 0,0 km/h
18.07.2014 14:00 34,3 C 41 % 987,8 hPa 0,0 l/m 4,5 km/h NW 19,1 C 34,3 C 2,5 km/h
18.07.2014 15:00 36,5 C 33 % 987,5 hPa 0,0 l/m 0,0 km/h W 17,6 C 36,5 C 0,0 km/h
18.07.2014 16:00 39,9 C 27 % 987,0 hPa 0,0 l/m 0,0 km/h NW 17,3 C 39,9 C 0,0 km/h
18.07.2014 17:00 40,8 C 24 % 986,6 hPa 0,0 l/m 0,0 km/h N 16,2 C 40,8 C 0,0 km/h
18.07.2014 18:00 41,8 C 23 % 986,1 hPa 0,0 l/m 0,0 km/h N 16,4 C 41,8 C 0,0 km/h
18.07.2014 19:00 39,7 C 29 % 985,9 hPa 0,0 l/m 0,0 km/h N 18,3 C 39,7 C 0,0 km/h
18.07.2014 20:00 28,4 C 50 % 986,1 hPa 0,0 l/m 0,0 km/h N 17,0 C 28,4 C 0,0 km/h
18.07.2014 21:00 23,8 C 60 % 985,9 hPa 0,0 l/m 0,0 km/h O 15,6 C 23,8 C 0,0 km/h
18.07.2014 22:00 21,3 C 66 % 985,9 hPa 0,0 l/m 0,0 km/h O-NO 14,7 C 21,3 C 0,0 km/h
18.07.2014 23:00 19,9 C 69 % 985,8 hPa 0,0 l/m 0,0 km/h SO 14,0 C 19,9 C 0,0 km/h
19.07.2014 00:00 19,6 C 68 % 985,3 hPa 0,0 l/m 0,0 km/h N-NO 13,5 C 19,6 C 0,0 km/h
19.07.2014 01:00 19,5 C 65 % 985,2 hPa 0,0 l/m 0,0 km/h SO 12,7 C 19,5 C 0,0 km/h
19.07.2014 02:00 19,0 C 66 % 985,1 hPa 0,0 l/m 0,0 km/h S-SO 12,5 C 19,0 C 0,0 km/h
19.07.2014 03:00 17,9 C 68 % 985,1 hPa 0,0 l/m 0,0 km/h S-SO 11,9 C 17,9 C 0,0 km/h
19.07.2014 04:00 15,9 C 75 % 985,0 hPa 0,0 l/m 0,0 km/h NO 11,5 C 15,9 C 0,0 km/h
19.07.2014 05:00 15,8 C 77 % 984,9 hPa 0,0 l/m 0,0 km/h O-SO 11,8 C 15,8 C 0,0 km/h
19.07.2014 06:00 13,6 C 80 % 985,0 hPa 0,0 l/m 0,0 km/h O-SO 10,2 C 13,6 C 0,0 km/h
19.07.2014 07:00 15,8 C 83 % 985,0 hPa 0,0 l/m 0,0 km/h N 12,9 C 15,8 C 0,0 km/h
19.07.2014 08:00 26,6 C 53 % 984,7 hPa 0,0 l/m 0,0 km/h W 16,2 C 26,6 C 0,0 km/h
19.07.2014 09:00 28,4 C 47 % 983,9 hPa 0,0 l/m 3,2 km/h W 16,0 C 28,4 C 1,8 km/h
19.07.2014 10:00 30,9 C 44 % 984,3 hPa 0,0 l/m 1,9 km/h W 17,2 C 30,9 C 1,1 km/h
19.07.2014 11:00 33,1 C 41 % 984,2 hPa 0,0 l/m 0,0 km/h W 18,0 C 33,1 C 0,0 km/h
19.07.2014 12:00 32,8 C 40 % 984,3 hPa 0,0 l/m 0,0 km/h W 17,4 C 32,8 C 0,0 km/h
19.07.2014 13:00 34,2 C 39 % 984,1 hPa 0,0 l/m 2,6 km/h S-SO 18,2 C 34,2 C 1,4 km/h
19.07.2014 14:00 35,4 C 33 % 983,5 hPa 0,0 l/m 0,0 km/h SO 16,6 C 35,4 C 0,0 km/h
19.07.2014 15:00 36,2 C 34 % 983,1 hPa 0,0 l/m 0,0 km/h W 17,8 C 36,2 C 0,0 km/h
19.07.2014 16:00 41,4 C 27 % 982,8 hPa 0,0 l/m 0,0 km/h W 18,6 C 41,4 C 0,0 km/h
19.07.2014 17:00 37,3 C 29 % 982,4 hPa 0,0 l/m 3,2 km/h N-NO 16,2 C 37,3 C 1,8 km/h
19.07.2014 18:00 33,8 C 44 % 982,3 hPa 0,0 l/m 0,0 km/h O-NO 19,8 C 33,8 C 0,0 km/h
19.07.2014 19:00 32,5 C 46 % 981,8 hPa 0,0 l/m 0,0 km/h O-SO 19,4 C 32,5 C 0,0 km/h
19.07.2014 20:00 28,4 C 57 % 981,5 hPa 0,0 l/m 0,0 km/h O-NO 19,0 C 28,4 C 0,0 km/h
19.07.2014 21:00 24,4 C 66 % 981,2 hPa 0,0 l/m 0,0 km/h N 17,6 C 24,4 C 0,0 km/h
19.07.2014 22:00 23,5 C 67 % 980,4 hPa 0,0 l/m 0,0 km/h N-NO 17,0 C 23,5 C 0,0 km/h
19.07.2014 23:00 22,6 C 70 % 980,3 hPa 0,0 l/m 0,0 km/h N-NO 16,8 C 22,6 C 0,0 km/h
20.07.2014 00:00 21,6 C 74 % 980,5 hPa 0,0 l/m 0,0 km/h N-NO 16,8 C 21,6 C 0,0 km/h
20.07.2014 01:00 20,2 C 76 % 980,2 hPa 0,0 l/m 0,0 km/h O 15,8 C 20,2 C 0,0 km/h
20.07.2014 02:00 19,5 C 79 % 979,9 hPa 0,0 l/m 0,0 km/h N-NO 15,8 C 19,5 C 0,0 km/h
20.07.2014 03:00 18,6 C 81 % 980,3 hPa 0,0 l/m 0,0 km/h NO 15,3 C 18,6 C 0,0 km/h
20.07.2014 04:00 18,3 C 83 % 980,7 hPa 0,0 l/m 0,0 km/h NO 15,4 C 18,3 C 0,0 km/h
20.07.2014 05:00 18,1 C 83 % 981,0 hPa 0,0 l/m 0,0 km/h O-SO 15,2 C 18,1 C 0,0 km/h
20.07.2014 06:00 18,6 C 84 % 982,3 hPa 0,0 l/m 0,0 km/h S-SO 15,8 C 18,6 C 0,0 km/h
20.07.2014 07:00 19,2 C 84 % 982,8 hPa 0,0 l/m 2,6 km/h O-SO 16,4 C 19,2 C 1,4 km/h
20.07.2014 08:00 18,9 C 85 % 982,4 hPa 0,3 l/m 0,0 km/h O 16,3 C 18,9 C 0,0 km/h
20.07.2014 09:00 21,5 C 84 % 982,6 hPa 0,2 l/m 0,0 km/h W 18,7 C 21,5 C 0,0 km/h
20.07.2014 10:00 25,2 C 74 % 983,2 hPa 0,0 l/m 1,3 km/h SW 20,2 C 25,2 C 0,7 km/h
20.07.2014 11:00 20,4 C 78 % 983,5 hPa 0,0 l/m 0,0 km/h SO 16,4 C 20,4 C 0,0 km/h
20.07.2014 12:00 19,6 C 82 % 984,3 hPa 0,0 l/m 0,0 km/h NO 16,4 C 19,6 C 0,0 km/h
20.07.2014 13:00 20,1 C 83 % 984,5 hPa 0,2 l/m 3,9 km/h O-NO 17,1 C 20,1 C 2,2 km/h
20.07.2014 14:00 20,6 C 81 % 984,0 hPa 0,0 l/m 0,0 km/h O-SO 17,2 C 20,6 C 0,0 km/h
20.07.2014 15:00 19,9 C 84 % 982,8 hPa 0,3 l/m 0,0 km/h N 17,1 C 19,9 C 0,0 km/h
20.07.2014 16:00 25,8 C 71 % 982,9 hPa 0,0 l/m 0,0 km/h W 20,1 C 25,8 C 0,0 km/h
20.07.2014 17:00 26,6 C 60 % 982,9 hPa 0,0 l/m 0,0 km/h O-SO 18,2 C 26,6 C 0,0 km/h
20.07.2014 18:00 23,3 C 72 % 981,9 hPa 0,0 l/m 0,0 km/h W-NW 18,0 C 23,3 C 0,0 km/h
20.07.2014 19:00 21,8 C 77 % 982,0 hPa 0,0 l/m 0,0 km/h N-NO 17,6 C 21,8 C 0,0 km/h
20.07.2014 20:00 19,9 C 83 % 982,0 hPa 0,5 l/m 0,0 km/h SO 16,9 C 19,9 C 0,0 km/h
20.07.2014 21:00 18,6 C 85 % 982,2 hPa 0,5 l/m 3,2 km/h S-SO 16,0 C 18,6 C 3,2 km/h
20.07.2014 22:00 17,6 C 85 % 983,0 hPa 0,0 l/m 0,0 km/h W 15,0 C 17,6 C 0,0 km/h
20.07.2014 23:00 17,4 C 83 % 983,8 hPa 0,5 l/m 13,0 km/h SO 14,5 C 14,7 C 13,0 km/h
Min-Datum _ 15.07.14 18.07.14 20.07.14 - 14.07.14 - 15.07.14 15.07.14 14.07.14
_ Min-Zeit 05:19 18:19 02:19 - 04:19 - 05:19 05:19 04:19
Minimum _ 11,2 C 23 % 979,9 hPa - 0,0 km/h - 8,4 C 11,2 C 0,0 km/h
Max-Datum _ 18.07.14 14.07.14 16.07.14 14.07.14 14.07.14 - 20.07.14 18.07.14 20.07.14
_ Max-Zeit 18:19 05:19 00:19 20:19 12:19 - 10:19 18:19 23:19
Maximum _ 41,8 C 86 % 992,6 hPa 3,3 l/m 16,2 km/h
SW
- 20,2 C 41,8 C 13,0 km/h
SO
Durchschnitt _ 23,4 C 65 % 987,7 hPa #8,4 l/m 1,3 km/h N-NO 15,3 C 23,3 C 0,9 km/h
www.sexauwetter.de